sensor_id;sensor_type;location;lat;lon;timestamp;pressure;altitude;pressure_sealevel;temperature;humidity
74169;BME280;62523;53.336;83.690;2023-07-09T00:01:18;98531.59;;;16.91;100.00
74169;BME280;62523;53.336;83.690;2023-07-09T00:06:20;98538.25;;;17.78;100.00
74169;BME280;62523;53.336;83.690;2023-07-09T00:11:21;98539.16;;;17.24;100.00
74169;BME280;62523;53.336;83.690;2023-07-09T00:16:24;98537.44;;;18.32;100.00
74169;BME280;62523;53.336;83.690;2023-07-09T00:21:26;98536.03;;;17.56;100.00
74169;BME280;62523;53.336;83.690;2023-07-09T00:26:31;98542.94;;;17.49;100.00
74169;BME280;62523;53.336;83.690;2023-07-09T00:31:33;98555.00;;;17.15;100.00
74169;BME280;62523;53.336;83.690;2023-07-09T00:36:35;98549.50;;;17.27;100.00
74169;BME280;62523;53.336;83.690;2023-07-09T00:41:37;98552.03;;;17.46;100.00
74169;BME280;62523;53.336;83.690;2023-07-09T00:51:41;98555.88;;;17.61;100.00
74169;BME280;62523;53.336;83.690;2023-07-09T00:56:47;98557.25;;;17.66;100.00
74169;BME280;62523;53.336;83.690;2023-07-09T01:01:53;98573.44;;;17.82;100.00
74169;BME280;62523;53.336;83.690;2023-07-09T01:06:56;98572.41;;;17.65;100.00
74169;BME280;62523;53.336;83.690;2023-07-09T01:11:58;98577.97;;;17.44;100.00
74169;BME280;62523;53.336;83.690;2023-07-09T01:17:04;98581.16;;;17.30;100.00
74169;BME280;62523;53.336;83.690;2023-07-09T01:22:06;98587.41;;;17.38;100.00
74169;BME280;62523;53.336;83.690;2023-07-09T01:27:08;98585.47;;;17.31;100.00
74169;BME280;62523;53.336;83.690;2023-07-09T01:32:10;98583.41;;;17.52;100.00
74169;BME280;62523;53.336;83.690;2023-07-09T01:37:13;98589.44;;;17.82;100.00
74169;BME280;62523;53.336;83.690;2023-07-09T01:42:17;98575.47;;;18.16;100.00
74169;BME280;62523;53.336;83.690;2023-07-09T01:47:20;98574.69;;;18.68;100.00
74169;BME280;62523;53.336;83.690;2023-07-09T01:52:22;98568.13;;;19.49;100.00
74169;BME280;62523;53.336;83.690;2023-07-09T01:57:27;98565.00;;;18.23;100.00
74169;BME280;62523;53.336;83.690;2023-07-09T02:02:35;98578.81;;;19.40;100.00
74169;BME280;62523;53.336;83.690;2023-07-09T02:07:36;98579.44;;;19.00;100.00
74169;BME280;62523;53.336;83.690;2023-07-09T02:12:38;98580.53;;;18.71;100.00
74169;BME280;62523;53.336;83.690;2023-07-09T02:17:40;98581.75;;;18.77;100.00
74169;BME280;62523;53.336;83.690;2023-07-09T02:22:42;98576.47;;;20.04;100.00
74169;BME280;62523;53.336;83.690;2023-07-09T02:27:44;98573.00;;;20.20;100.00
74169;BME280;62523;53.336;83.690;2023-07-09T02:32:45;98580.44;;;19.33;100.00
74169;BME280;62523;53.336;83.690;2023-07-09T02:37:47;98590.38;;;19.15;100.00
74169;BME280;62523;53.336;83.690;2023-07-09T02:42:48;98591.78;;;19.35;100.00
74169;BME280;62523;53.336;83.690;2023-07-09T02:47:52;98593.53;;;19.18;100.00
74169;BME280;62523;53.336;83.690;2023-07-09T02:52:55;98596.56;;;18.89;100.00
74169;BME280;62523;53.336;83.690;2023-07-09T02:57:57;98598.53;;;19.13;100.00
74169;BME280;62523;53.336;83.690;2023-07-09T03:02:58;98594.91;;;20.16;100.00
74169;BME280;62523;53.336;83.690;2023-07-09T03:08:00;98585.19;;;19.56;100.00
74169;BME280;62523;53.336;83.690;2023-07-09T03:13:02;98592.03;;;20.01;100.00
74169;BME280;62523;53.336;83.690;2023-07-09T03:18:03;98600.63;;;19.36;100.00
74169;BME280;62523;53.336;83.690;2023-07-09T03:23:05;98600.44;;;19.29;100.00
74169;BME280;62523;53.336;83.690;2023-07-09T03:28:06;98593.72;;;20.18;100.00
74169;BME280;62523;53.336;83.690;2023-07-09T03:33:09;98595.41;;;20.36;100.00
74169;BME280;62523;53.336;83.690;2023-07-09T03:38:11;98595.13;;;20.63;99.92
74169;BME280;62523;53.336;83.690;2023-07-09T03:43:13;98603.09;;;20.22;100.00
74169;BME280;62523;53.336;83.690;2023-07-09T03:48:16;98591.72;;;20.53;99.70
74169;BME280;62523;53.336;83.690;2023-07-09T03:53:18;98593.94;;;21.38;95.43
74169;BME280;62523;53.336;83.690;2023-07-09T03:58:20;98588.91;;;21.52;93.04
74169;BME280;62523;53.336;83.690;2023-07-09T04:03:22;98584.09;;;21.22;92.10
74169;BME280;62523;53.336;83.690;2023-07-09T04:08:24;98597.91;;;20.21;98.24
74169;BME280;62523;53.336;83.690;2023-07-09T04:13:26;98583.19;;;20.00;99.04
74169;BME280;62523;53.336;83.690;2023-07-09T04:18:29;98585.38;;;20.79;95.45
74169;BME280;62523;53.336;83.690;2023-07-09T04:23:30;98584.03;;;20.09;99.03
74169;BME280;62523;53.336;83.690;2023-07-09T04:28:32;98582.50;;;20.07;100.00
74169;BME280;62523;53.336;83.690;2023-07-09T04:33:33;98575.50;;;20.05;100.00
74169;BME280;62523;53.336;83.690;2023-07-09T04:38:37;98580.19;;;20.77;98.60
74169;BME280;62523;53.336;83.690;2023-07-09T04:43:38;98581.97;;;21.10;94.96
74169;BME280;62523;53.336;83.690;2023-07-09T04:48:48;98579.22;;;20.78;96.54
74169;BME280;62523;53.336;83.690;2023-07-09T04:53:50;98565.38;;;21.14;95.38
74169;BME280;62523;53.336;83.690;2023-07-09T04:58:56;98570.91;;;21.68;91.08
74169;BME280;62523;53.336;83.690;2023-07-09T05:03:58;98592.09;;;20.50;97.20
74169;BME280;62523;53.336;83.690;2023-07-09T05:08:59;98601.06;;;20.16;100.00
74169;BME280;62523;53.336;83.690;2023-07-09T05:14:02;98578.72;;;20.66;100.00
74169;BME280;62523;53.336;83.690;2023-07-09T05:19:03;98582.63;;;21.20;95.45
74169;BME280;62523;53.336;83.690;2023-07-09T05:24:06;98572.88;;;21.98;88.83
74169;BME280;62523;53.336;83.690;2023-07-09T05:29:08;98575.50;;;21.83;83.35
74169;BME280;62523;53.336;83.690;2023-07-09T05:34:10;98578.44;;;21.65;84.38
74169;BME280;62523;53.336;83.690;2023-07-09T05:39:12;98568.94;;;21.54;84.51
74169;BME280;62523;53.336;83.690;2023-07-09T05:44:14;98572.66;;;21.53;82.80
74169;BME280;62523;53.336;83.690;2023-07-09T05:49:15;98562.06;;;21.60;84.44
74169;BME280;62523;53.336;83.690;2023-07-09T05:54:17;98564.13;;;21.50;84.14
74169;BME280;62523;53.336;83.690;2023-07-09T05:59:20;98564.84;;;21.98;81.34
74169;BME280;62523;53.336;83.690;2023-07-09T06:04:21;98568.97;;;22.08;80.89
74169;BME280;62523;53.336;83.690;2023-07-09T06:09:23;98566.53;;;21.67;80.19
74169;BME280;62523;53.336;83.690;2023-07-09T06:14:25;98571.91;;;21.67;78.70
74169;BME280;62523;53.336;83.690;2023-07-09T06:19:27;98557.72;;;22.36;79.35
74169;BME280;62523;53.336;83.690;2023-07-09T06:24:29;98560.72;;;21.64;81.96
74169;BME280;62523;53.336;83.690;2023-07-09T06:29:31;98555.91;;;22.05;75.97
74169;BME280;62523;53.336;83.690;2023-07-09T06:34:33;98552.34;;;22.74;74.74
74169;BME280;62523;53.336;83.690;2023-07-09T06:39:35;98547.00;;;22.36;75.53
74169;BME280;62523;53.336;83.690;2023-07-09T06:44:37;98541.63;;;22.36;75.78
74169;BME280;62523;53.336;83.690;2023-07-09T06:49:38;98536.03;;;22.76;75.35
74169;BME280;62523;53.336;83.690;2023-07-09T06:54:40;98546.50;;;22.70;75.58
74169;BME280;62523;53.336;83.690;2023-07-09T06:59:41;98534.00;;;22.63;76.30
74169;BME280;62523;53.336;83.690;2023-07-09T07:04:42;98532.56;;;22.37;74.13
74169;BME280;62523;53.336;83.690;2023-07-09T07:09:44;98525.03;;;22.33;71.31
74169;BME280;62523;53.336;83.690;2023-07-09T07:14:45;98522.50;;;22.54;70.05
74169;BME280;62523;53.336;83.690;2023-07-09T07:19:47;98525.06;;;22.47;74.13
74169;BME280;62523;53.336;83.690;2023-07-09T07:24:49;98524.13;;;22.93;72.28
74169;BME280;62523;53.336;83.690;2023-07-09T07:29:51;98528.66;;;22.93;68.91
74169;BME280;62523;53.336;83.690;2023-07-09T07:34:52;98527.78;;;23.15;74.11
74169;BME280;62523;53.336;83.690;2023-07-09T07:39:55;98540.03;;;22.80;66.56
74169;BME280;62523;53.336;83.690;2023-07-09T07:44:57;98543.94;;;22.92;65.97
74169;BME280;62523;53.336;83.690;2023-07-09T07:49:58;98535.22;;;22.75;68.45
74169;BME280;62523;53.336;83.690;2023-07-09T07:55:00;98528.47;;;22.79;66.58
74169;BME280;62523;53.336;83.690;2023-07-09T08:00:02;98518.31;;;23.19;67.51
74169;BME280;62523;53.336;83.690;2023-07-09T08:05:13;98528.28;;;22.81;68.98
74169;BME280;62523;53.336;83.690;2023-07-09T08:10:15;98534.13;;;23.29;67.96
74169;BME280;62523;53.336;83.690;2023-07-09T08:15:16;98525.09;;;23.66;64.64
74169;BME280;62523;53.336;83.690;2023-07-09T08:20:18;98536.53;;;23.54;67.74
74169;BME280;62523;53.336;83.690;2023-07-09T08:25:20;98548.75;;;22.97;67.77
74169;BME280;62523;53.336;83.690;2023-07-09T08:30:21;98524.41;;;22.83;66.33
74169;BME280;62523;53.336;83.690;2023-07-09T08:35:23;98522.22;;;23.17;66.66
74169;BME280;62523;53.336;83.690;2023-07-09T08:40:24;98513.38;;;23.38;66.11
74169;BME280;62523;53.336;83.690;2023-07-09T08:46:00;98541.59;;;23.63;68.33
74169;BME280;62523;53.336;83.690;2023-07-09T08:51:15;98537.22;;;23.11;70.95
74169;BME280;62523;53.336;83.690;2023-07-09T08:56:19;98536.69;;;22.78;71.59
74169;BME280;62523;53.336;83.690;2023-07-09T09:01:29;98538.19;;;22.65;72.03
74169;BME280;62523;53.336;83.690;2023-07-09T09:06:33;98553.09;;;22.83;69.35
74169;BME280;62523;53.336;83.690;2023-07-09T09:11:43;98537.00;;;22.83;69.36
74169;BME280;62523;53.336;83.690;2023-07-09T09:16:47;98533.41;;;23.05;70.05
74169;BME280;62523;53.336;83.690;2023-07-09T09:22:00;98515.84;;;23.54;67.25
74169;BME280;62523;53.336;83.690;2023-07-09T09:27:08;98517.34;;;23.42;64.47
74169;BME280;62523;53.336;83.690;2023-07-09T09:32:31;98503.69;;;23.58;57.66
74169;BME280;62523;53.336;83.690;2023-07-09T09:37:37;98503.00;;;23.71;52.83
74169;BME280;62523;53.336;83.690;2023-07-09T09:42:38;98517.94;;;23.22;52.79
74169;BME280;62523;53.336;83.690;2023-07-09T09:47:40;98533.47;;;23.27;51.46
74169;BME280;62523;53.336;83.690;2023-07-09T09:52:43;98546.00;;;23.35;51.57
74169;BME280;62523;53.336;83.690;2023-07-09T09:57:49;98555.81;;;22.98;51.90
74169;BME280;62523;53.336;83.690;2023-07-09T10:02:59;98572.63;;;22.16;62.06
74169;BME280;62523;53.336;83.690;2023-07-09T10:08:08;98565.34;;;21.70;68.06
74169;BME280;62523;53.336;83.690;2023-07-09T10:13:27;98569.03;;;21.69;67.58
74169;BME280;62523;53.336;83.690;2023-07-09T10:18:43;98581.94;;;21.18;76.45
74169;BME280;62523;53.336;83.690;2023-07-09T10:23:59;98590.22;;;20.83;85.70
74169;BME280;62523;53.336;83.690;2023-07-09T10:39:22;98575.78;;;21.17;83.05
74169;BME280;62523;53.336;83.690;2023-07-09T10:44:36;98591.06;;;20.51;79.13
74169;BME280;62523;53.336;83.690;2023-07-09T10:49:42;98594.00;;;19.91;81.94
74169;BME280;62523;53.336;83.690;2023-07-09T11:00:14;98602.41;;;19.53;84.42
74169;BME280;62523;53.336;83.690;2023-07-09T11:05:17;98577.91;;;19.66;79.94
74169;BME280;62523;53.336;83.690;2023-07-09T11:10:28;98577.69;;;19.59;79.16
74169;BME280;62523;53.336;83.690;2023-07-09T11:15:38;98568.47;;;19.88;76.43
74169;BME280;62523;53.336;83.690;2023-07-09T11:20:44;98566.50;;;20.72;73.56
74169;BME280;62523;53.336;83.690;2023-07-09T11:31:20;98551.94;;;20.75;69.80
74169;BME280;62523;53.336;83.690;2023-07-09T11:36:27;98556.50;;;21.22;70.84
74169;BME280;62523;53.336;83.690;2023-07-09T11:41:43;98554.94;;;21.44;69.85
74169;BME280;62523;53.336;83.690;2023-07-09T11:52:07;98562.75;;;21.85;69.54
74169;BME280;62523;53.336;83.690;2023-07-09T11:57:12;98568.81;;;21.39;72.23
74169;BME280;62523;53.336;83.690;2023-07-09T12:02:19;98560.75;;;21.00;70.41
74169;BME280;62523;53.336;83.690;2023-07-09T12:07:23;98566.28;;;21.54;66.83
74169;BME280;62523;53.336;83.690;2023-07-09T12:12:26;98564.16;;;22.50;61.65
74169;BME280;62523;53.336;83.690;2023-07-09T12:17:29;98579.00;;;22.76;60.80
74169;BME280;62523;53.336;83.690;2023-07-09T12:22:33;98569.47;;;22.35;61.28
74169;BME280;62523;53.336;83.690;2023-07-09T12:27:35;98560.63;;;22.49;63.38
74169;BME280;62523;53.336;83.690;2023-07-09T12:32:49;98561.88;;;21.93;64.83
74169;BME280;62523;53.336;83.690;2023-07-09T12:37:53;98572.41;;;22.63;62.26
74169;BME280;62523;53.336;83.690;2023-07-09T12:42:58;98570.91;;;22.46;63.44
74169;BME280;62523;53.336;83.690;2023-07-09T12:48:00;98580.00;;;22.60;62.32
74169;BME280;62523;53.336;83.690;2023-07-09T12:53:24;98591.22;;;22.40;62.98
74169;BME280;62523;53.336;83.690;2023-07-09T12:58:36;98588.63;;;22.01;68.16
74169;BME280;62523;53.336;83.690;2023-07-09T13:03:55;98595.94;;;22.61;65.79
74169;BME280;62523;53.336;83.690;2023-07-09T13:08:59;98594.34;;;22.29;66.22
74169;BME280;62523;53.336;83.690;2023-07-09T13:14:07;98587.34;;;22.81;61.69
74169;BME280;62523;53.336;83.690;2023-07-09T13:19:14;98610.91;;;22.33;62.21
74169;BME280;62523;53.336;83.690;2023-07-09T13:24:28;98612.50;;;21.40;66.87
74169;BME280;62523;53.336;83.690;2023-07-09T13:29:31;98612.25;;;21.18;67.93
74169;BME280;62523;53.336;83.690;2023-07-09T13:34:33;98608.97;;;20.92;68.41
74169;BME280;62523;53.336;83.690;2023-07-09T13:39:35;98612.72;;;21.78;63.93
74169;BME280;62523;53.336;83.690;2023-07-09T13:44:36;98598.50;;;21.77;62.56
74169;BME280;62523;53.336;83.690;2023-07-09T13:49:38;98608.72;;;21.74;63.10
74169;BME280;62523;53.336;83.690;2023-07-09T13:54:40;98608.56;;;21.75;63.27
74169;BME280;62523;53.336;83.690;2023-07-09T13:59:42;98611.78;;;21.06;67.00
74169;BME280;62523;53.336;83.690;2023-07-09T14:04:44;98607.97;;;20.76;68.82
74169;BME280;62523;53.336;83.690;2023-07-09T14:09:45;98617.00;;;20.75;69.60
74169;BME280;62523;53.336;83.690;2023-07-09T14:14:49;98620.84;;;20.64;70.43
74169;BME280;62523;53.336;83.690;2023-07-09T14:19:52;98622.66;;;20.56;71.73
74169;BME280;62523;53.336;83.690;2023-07-09T14:24:53;98620.00;;;20.56;72.31
74169;BME280;62523;53.336;83.690;2023-07-09T14:29:55;98623.81;;;20.45;73.28
74169;BME280;62523;53.336;83.690;2023-07-09T14:34:58;98622.69;;;20.39;73.70
74169;BME280;62523;53.336;83.690;2023-07-09T14:40:00;98625.50;;;20.30;74.94
74169;BME280;62523;53.336;83.690;2023-07-09T14:45:01;98626.63;;;20.11;75.97
74169;BME280;62523;53.336;83.690;2023-07-09T14:50:05;98621.13;;;20.12;76.17
74169;BME280;62523;53.336;83.690;2023-07-09T14:55:18;98630.31;;;20.10;76.46
74169;BME280;62523;53.336;83.690;2023-07-09T15:00:22;98634.59;;;19.86;78.45
74169;BME280;62523;53.336;83.690;2023-07-09T15:05:25;98637.72;;;19.73;79.72
74169;BME280;62523;53.336;83.690;2023-07-09T15:10:28;98641.38;;;19.72;80.48
74169;BME280;62523;53.336;83.690;2023-07-09T15:15:30;98637.75;;;19.81;80.12
74169;BME280;62523;53.336;83.690;2023-07-09T15:20:32;98640.25;;;19.75;81.19
74169;BME280;62523;53.336;83.690;2023-07-09T15:25:34;98649.66;;;19.61;83.35
74169;BME280;62523;53.336;83.690;2023-07-09T15:30:35;98635.75;;;19.49;84.26
74169;BME280;62523;53.336;83.690;2023-07-09T15:35:38;98646.41;;;19.41;85.03
74169;BME280;62523;53.336;83.690;2023-07-09T15:40:39;98638.66;;;19.30;86.10
74169;BME280;62523;53.336;83.690;2023-07-09T15:45:46;98636.78;;;19.22;86.88
74169;BME280;62523;53.336;83.690;2023-07-09T15:50:49;98640.47;;;19.21;87.51
74169;BME280;62523;53.336;83.690;2023-07-09T15:55:56;98648.34;;;19.05;88.28
74169;BME280;62523;53.336;83.690;2023-07-09T16:00:59;98644.44;;;18.91;89.12
74169;BME280;62523;53.336;83.690;2023-07-09T16:06:00;98637.56;;;18.88;88.64
74169;BME280;62523;53.336;83.690;2023-07-09T16:11:09;98644.72;;;18.88;88.36
74169;BME280;62523;53.336;83.690;2023-07-09T16:16:19;98635.22;;;18.85;87.98
74169;BME280;62523;53.336;83.690;2023-07-09T16:21:39;98646.50;;;18.79;88.72
74169;BME280;62523;53.336;83.690;2023-07-09T16:26:40;98634.38;;;18.85;88.00
74169;BME280;62523;53.336;83.690;2023-07-09T16:31:42;98631.72;;;18.85;87.08
74169;BME280;62523;53.336;83.690;2023-07-09T16:36:43;98634.22;;;18.86;87.11
74169;BME280;62523;53.336;83.690;2023-07-09T16:41:45;98633.00;;;18.62;86.59
74169;BME280;62523;53.336;83.690;2023-07-09T16:46:48;98634.38;;;18.67;86.31
74169;BME280;62523;53.336;83.690;2023-07-09T16:51:52;98639.75;;;18.93;85.31
74169;BME280;62523;53.336;83.690;2023-07-09T16:56:54;98630.28;;;18.54;86.74
74169;BME280;62523;53.336;83.690;2023-07-09T17:01:56;98633.72;;;18.29;88.51
74169;BME280;62523;53.336;83.690;2023-07-09T17:06:57;98629.72;;;17.97;90.40
74169;BME280;62523;53.336;83.690;2023-07-09T17:11:59;98631.56;;;18.14;91.32
74169;BME280;62523;53.336;83.690;2023-07-09T17:17:00;98630.66;;;18.24;89.78
74169;BME280;62523;53.336;83.690;2023-07-09T17:22:18;98644.44;;;18.19;90.26
74169;BME280;62523;53.336;83.690;2023-07-09T17:27:21;98646.41;;;18.17;90.79
74169;BME280;62523;53.336;83.690;2023-07-09T17:32:22;98638.34;;;18.09;92.15
74169;BME280;62523;53.336;83.690;2023-07-09T17:37:24;98634.56;;;18.11;93.18
74169;BME280;62523;53.336;83.690;2023-07-09T17:42:25;98637.00;;;18.23;92.46
74169;BME280;62523;53.336;83.690;2023-07-09T17:47:27;98628.53;;;18.09;95.05
74169;BME280;62523;53.336;83.690;2023-07-09T17:52:28;98638.38;;;17.81;98.83
74169;BME280;62523;53.336;83.690;2023-07-09T17:57:32;98630.28;;;17.73;100.00
74169;BME280;62523;53.336;83.690;2023-07-09T18:02:35;98636.94;;;17.87;100.00
74169;BME280;62523;53.336;83.690;2023-07-09T18:07:39;98636.81;;;17.51;100.00
74169;BME280;62523;53.336;83.690;2023-07-09T18:12:41;98628.03;;;17.40;100.00
74169;BME280;62523;53.336;83.690;2023-07-09T18:17:42;98625.19;;;17.14;100.00
74169;BME280;62523;53.336;83.690;2023-07-09T18:22:44;98625.97;;;17.25;100.00
74169;BME280;62523;53.336;83.690;2023-07-09T18:27:49;98619.63;;;17.45;100.00
74169;BME280;62523;53.336;83.690;2023-07-09T18:32:54;98619.56;;;17.27;100.00
74169;BME280;62523;53.336;83.690;2023-07-09T18:37:58;98607.59;;;16.94;100.00
74169;BME280;62523;53.336;83.690;2023-07-09T18:43:00;98610.91;;;17.15;100.00
74169;BME280;62523;53.336;83.690;2023-07-09T18:48:17;98615.09;;;17.18;100.00
74169;BME280;62523;53.336;83.690;2023-07-09T18:53:22;98614.13;;;17.19;100.00
74169;BME280;62523;53.336;83.690;2023-07-09T18:58:26;98612.44;;;17.18;100.00
74169;BME280;62523;53.336;83.690;2023-07-09T19:03:34;98612.34;;;17.00;100.00
74169;BME280;62523;53.336;83.690;2023-07-09T19:08:36;98615.84;;;17.01;100.00
74169;BME280;62523;53.336;83.690;2023-07-09T19:13:47;98612.66;;;16.87;100.00
74169;BME280;62523;53.336;83.690;2023-07-09T19:18:49;98607.03;;;17.00;100.00
74169;BME280;62523;53.336;83.690;2023-07-09T19:23:51;98608.41;;;17.04;100.00
74169;BME280;62523;53.336;83.690;2023-07-09T19:28:52;98602.69;;;16.79;100.00
74169;BME280;62523;53.336;83.690;2023-07-09T19:33:54;98609.16;;;16.77;100.00
74169;BME280;62523;53.336;83.690;2023-07-09T19:38:56;98603.44;;;16.82;100.00
74169;BME280;62523;53.336;83.690;2023-07-09T19:43:57;98599.34;;;16.77;100.00
74169;BME280;62523;53.336;83.690;2023-07-09T19:48:59;98599.19;;;16.98;100.00
74169;BME280;62523;53.336;83.690;2023-07-09T19:54:00;98594.44;;;16.92;100.00
74169;BME280;62523;53.336;83.690;2023-07-09T19:59:02;98588.66;;;17.07;100.00
74169;BME280;62523;53.336;83.690;2023-07-09T20:04:04;98584.66;;;16.93;100.00
74169;BME280;62523;53.336;83.690;2023-07-09T20:09:14;98585.09;;;16.69;100.00
74169;BME280;62523;53.336;83.690;2023-07-09T20:14:19;98589.75;;;16.57;100.00
74169;BME280;62523;53.336;83.690;2023-07-09T20:19:22;98594.47;;;16.83;100.00
74169;BME280;62523;53.336;83.690;2023-07-09T20:24:24;98593.78;;;16.61;100.00
74169;BME280;62523;53.336;83.690;2023-07-09T20:29:26;98593.38;;;16.46;100.00
74169;BME280;62523;53.336;83.690;2023-07-09T20:34:28;98583.88;;;16.44;100.00
74169;BME280;62523;53.336;83.690;2023-07-09T20:39:30;98581.91;;;16.65;100.00
74169;BME280;62523;53.336;83.690;2023-07-09T20:44:36;98587.22;;;16.36;100.00
74169;BME280;62523;53.336;83.690;2023-07-09T20:49:38;98584.44;;;16.37;100.00
74169;BME280;62523;53.336;83.690;2023-07-09T20:54:40;98578.16;;;16.19;100.00
74169;BME280;62523;53.336;83.690;2023-07-09T20:59:42;98578.59;;;16.24;100.00
74169;BME280;62523;53.336;83.690;2023-07-09T21:04:44;98576.75;;;16.15;100.00
74169;BME280;62523;53.336;83.690;2023-07-09T21:09:46;98571.44;;;16.25;100.00
74169;BME280;62523;53.336;83.690;2023-07-09T21:14:48;98568.66;;;16.26;100.00
74169;BME280;62523;53.336;83.690;2023-07-09T21:19:51;98562.91;;;16.11;100.00
74169;BME280;62523;53.336;83.690;2023-07-09T21:24:55;98569.75;;;15.94;100.00
74169;BME280;62523;53.336;83.690;2023-07-09T21:29:59;98574.06;;;15.95;100.00
74169;BME280;62523;53.336;83.690;2023-07-09T21:35:01;98576.31;;;16.00;100.00
74169;BME280;62523;53.336;83.690;2023-07-09T21:40:33;98576.75;;;15.86;100.00
74169;BME280;62523;53.336;83.690;2023-07-09T21:45:36;98586.06;;;15.70;100.00
74169;BME280;62523;53.336;83.690;2023-07-09T21:50:40;98590.81;;;15.76;100.00
74169;BME280;62523;53.336;83.690;2023-07-09T21:55:42;98588.75;;;16.00;100.00
74169;BME280;62523;53.336;83.690;2023-07-09T22:00:43;98584.88;;;15.94;100.00
74169;BME280;62523;53.336;83.690;2023-07-09T22:05:46;98573.41;;;16.03;100.00
74169;BME280;62523;53.336;83.690;2023-07-09T22:10:47;98580.13;;;16.27;100.00
74169;BME280;62523;53.336;83.690;2023-07-09T22:15:52;98579.00;;;16.10;100.00
74169;BME280;62523;53.336;83.690;2023-07-09T22:20:54;98567.25;;;16.03;100.00
74169;BME280;62523;53.336;83.690;2023-07-09T22:25:56;98579.28;;;16.07;100.00
74169;BME280;62523;53.336;83.690;2023-07-09T22:30:57;98588.34;;;16.24;100.00
74169;BME280;62523;53.336;83.690;2023-07-09T22:35:59;98584.59;;;16.16;100.00
74169;BME280;62523;53.336;83.690;2023-07-09T22:41:01;98584.59;;;16.16;100.00
74169;BME280;62523;53.336;83.690;2023-07-09T22:46:04;98578.59;;;16.24;100.00
74169;BME280;62523;53.336;83.690;2023-07-09T22:51:07;98578.84;;;16.21;100.00
74169;BME280;62523;53.336;83.690;2023-07-09T22:56:08;98574.66;;;16.18;100.00
74169;BME280;62523;53.336;83.690;2023-07-09T23:01:18;98582.06;;;16.25;100.00
74169;BME280;62523;53.336;83.690;2023-07-09T23:06:26;98575.88;;;16.53;100.00
74169;BME280;62523;53.336;83.690;2023-07-09T23:11:33;98575.34;;;16.50;100.00
74169;BME280;62523;53.336;83.690;2023-07-09T23:16:35;98572.56;;;16.42;100.00
74169;BME280;62523;53.336;83.690;2023-07-09T23:21:37;98567.94;;;16.24;100.00
74169;BME280;62523;53.336;83.690;2023-07-09T23:26:46;98576.75;;;16.25;100.00
74169;BME280;62523;53.336;83.690;2023-07-09T23:31:48;98585.13;;;16.30;100.00
74169;BME280;62523;53.336;83.690;2023-07-09T23:36:50;98573.94;;;16.36;100.00
74169;BME280;62523;53.336;83.690;2023-07-09T23:41:52;98582.31;;;16.51;100.00
74169;BME280;62523;53.336;83.690;2023-07-09T23:46:56;98592.13;;;16.41;100.00
74169;BME280;62523;53.336;83.690;2023-07-09T23:51:58;98595.91;;;16.38;100.00
74169;BME280;62523;53.336;83.690;2023-07-09T23:57:00;98602.22;;;16.37;100.00
